createdAt,value
2019-02-28T00:00:29.619Z,3.70
2019-02-28T00:02:58.104Z,3.70
2019-02-28T00:05:26.599Z,3.60
2019-02-28T00:07:55.059Z,3.60
2019-02-28T00:10:23.627Z,3.60
2019-02-28T00:12:52.086Z,3.50
2019-02-28T00:15:20.660Z,3.50
2019-02-28T00:17:49.130Z,3.50
2019-02-28T00:20:17.740Z,3.50
2019-02-28T00:22:49.245Z,3.50
2019-02-28T00:25:16.667Z,3.40
2019-02-28T00:27:45.164Z,3.40
2019-02-28T00:30:15.370Z,3.30
2019-02-28T00:32:43.903Z,3.30
2019-02-28T00:35:13.377Z,3.20
2019-02-28T00:37:42.580Z,3.20
2019-02-28T00:40:11.618Z,3.20
2019-02-28T00:42:40.078Z,3.20
2019-02-28T00:45:13.268Z,3.20
2019-02-28T00:47:41.798Z,3.20
2019-02-28T00:50:10.530Z,3.10
2019-02-28T00:52:39.071Z,3.10
2019-02-28T00:55:32.531Z,3.00
2019-02-28T00:58:01.070Z,2.90
2019-02-28T01:00:29.583Z,2.90
2019-02-28T01:02:58.114Z,2.80
2019-02-28T01:05:26.654Z,2.80
2019-02-28T01:07:55.367Z,2.80
2019-02-28T01:10:24.668Z,2.80
2019-02-28T01:12:54.570Z,2.80
2019-02-28T01:15:23.146Z,2.80
2019-02-28T01:17:51.667Z,2.70
2019-02-28T01:20:20.203Z,2.70
2019-02-28T01:22:48.671Z,2.70
2019-02-28T01:25:20.386Z,2.70
2019-02-28T01:27:48.909Z,2.60
2019-02-28T01:30:17.614Z,2.60
2019-02-28T01:32:49.945Z,2.50
2019-02-28T01:35:16.435Z,2.50
2019-02-28T01:37:44.898Z,2.50
2019-02-28T01:40:14.735Z,2.40
2019-02-28T01:42:43.434Z,2.40
2019-02-28T01:45:12.962Z,2.40
2019-02-28T01:47:41.602Z,2.40
2019-02-28T01:50:11.798Z,2.30
2019-02-28T01:52:44.460Z,2.30
2019-02-28T01:55:11.273Z,2.40
2019-02-28T01:57:44.014Z,2.40
2019-02-28T02:00:18.223Z,2.40
2019-02-28T02:02:46.718Z,2.40
2019-02-28T02:05:16.937Z,2.50
2019-02-28T02:07:45.755Z,2.50
2019-02-28T02:10:21.717Z,2.50
2019-02-28T02:12:51.446Z,2.50
2019-02-28T02:15:20.560Z,2.40
2019-02-28T02:17:49.275Z,2.40
2019-02-28T02:20:17.902Z,2.30
2019-02-28T02:22:46.531Z,2.30
2019-02-28T02:25:15.434Z,2.30
2019-02-28T02:27:43.968Z,2.30
2019-02-28T02:30:33.293Z,2.30
2019-02-28T02:33:01.870Z,2.20
2019-02-28T02:35:30.400Z,2.10
2019-02-28T02:38:03.476Z,2.10
2019-02-28T02:40:29.152Z,2.10
2019-02-28T02:42:57.611Z,2.00
2019-02-28T02:45:26.125Z,2.00
2019-02-28T02:47:54.644Z,1.90
2019-02-28T02:50:23.143Z,1.90
2019-02-28T02:52:51.607Z,1.90
2019-02-28T02:55:20.190Z,1.80
2019-02-28T02:57:51.806Z,1.80
2019-02-28T03:00:19.684Z,1.80
2019-02-28T03:02:48.312Z,1.80
2019-02-28T03:05:16.916Z,1.80
2019-02-28T03:07:45.406Z,1.80
2019-02-28T03:10:19.393Z,1.70
2019-02-28T03:12:48.166Z,1.70
2019-02-28T03:15:25.448Z,1.80
2019-02-28T03:17:48.854Z,1.80
2019-02-28T03:20:18.146Z,1.80
2019-02-28T03:22:46.843Z,1.80
2019-02-28T03:25:18.384Z,1.70
2019-02-28T03:27:46.930Z,1.80
2019-02-28T03:30:27.741Z,1.80
2019-02-28T03:32:47.549Z,1.80
2019-02-28T03:35:16.075Z,1.80
2019-02-28T03:37:44.787Z,1.80
2019-02-28T03:40:14.784Z,1.70
2019-02-28T03:42:43.389Z,1.70
2019-02-28T03:45:15.577Z,1.70
2019-02-28T03:47:44.243Z,1.70
2019-02-28T03:50:13.515Z,1.70
2019-02-28T03:52:44.191Z,1.80
2019-02-28T03:55:13.622Z,1.80
2019-02-28T03:57:42.204Z,1.80
2019-02-28T04:00:38.292Z,1.80
2019-02-28T04:03:06.923Z,1.70
2019-02-28T04:05:35.636Z,1.60
2019-02-28T04:08:04.168Z,1.60
2019-02-28T04:10:32.650Z,1.50
2019-02-28T04:13:01.150Z,1.50
2019-02-28T04:15:29.702Z,1.50
2019-02-28T04:17:58.165Z,1.50
2019-02-28T04:20:26.747Z,1.40
2019-02-28T04:22:59.085Z,1.40
2019-02-28T04:25:25.429Z,1.40
2019-02-28T04:27:53.967Z,1.40
2019-02-28T04:30:22.460Z,1.30
2019-02-28T04:32:51.067Z,1.30
2019-02-28T04:35:24.304Z,1.30
2019-02-28T04:37:49.815Z,1.20
2019-02-28T04:40:18.319Z,1.20
2019-02-28T04:42:46.787Z,1.20
2019-02-28T04:45:15.330Z,1.10
2019-02-28T04:47:43.819Z,1.10
2019-02-28T04:50:12.919Z,1.10
2019-02-28T04:52:46.283Z,1.10
2019-02-28T04:55:12.218Z,1.10
2019-02-28T04:57:40.771Z,1.10
2019-02-28T05:00:12.104Z,1.10
2019-02-28T05:02:40.632Z,1.10
2019-02-28T05:05:12.060Z,1.10
2019-02-28T05:07:39.448Z,1.10
2019-02-28T05:10:09.471Z,1.10
2019-02-28T05:12:39.871Z,1.00
2019-02-28T05:15:10.860Z,1.00
2019-02-28T05:17:39.390Z,1.10
2019-02-28T05:20:11.007Z,1.10
2019-02-28T05:22:40.636Z,1.10
2019-02-28T05:25:10.465Z,1.10
2019-02-28T05:27:39.189Z,1.10
2019-02-28T05:30:19.278Z,1.00
2019-02-28T05:32:46.029Z,1.00
2019-02-28T05:35:14.657Z,1.00
2019-02-28T05:37:46.898Z,0.90
2019-02-28T05:40:14.904Z,0.90
2019-02-28T05:42:43.537Z,1.00
2019-02-28T05:45:14.833Z,0.90
2019-02-28T05:47:46.897Z,0.90
2019-02-28T05:50:16.690Z,0.90
2019-02-28T05:52:43.713Z,0.90
2019-02-28T05:55:12.322Z,0.90
2019-02-28T05:57:43.402Z,0.90
2019-02-28T06:00:14.817Z,0.90
2019-02-28T06:02:43.282Z,0.80
2019-02-28T06:05:12.693Z,0.80
2019-02-28T06:07:41.587Z,0.90
2019-02-28T06:10:12.231Z,0.90
2019-02-28T06:12:43.692Z,1.00
2019-02-28T06:15:18.116Z,1.10
2019-02-28T06:17:46.755Z,1.10
2019-02-28T06:20:17.967Z,1.10
2019-02-28T06:22:45.609Z,1.20
2019-02-28T06:25:33.500Z,1.30
2019-02-28T06:28:02.160Z,1.30
2019-02-28T06:30:30.896Z,1.40
2019-02-28T06:32:59.635Z,1.40
2019-02-28T06:35:28.370Z,1.50
2019-02-28T06:37:56.850Z,1.60
2019-02-28T06:40:25.411Z,1.60
2019-02-28T06:42:55.839Z,1.70
2019-02-28T06:45:24.186Z,1.80
2019-02-28T06:47:52.665Z,1.90
2019-02-28T06:50:21.331Z,2.00
2019-02-28T06:52:49.926Z,2.20
2019-02-28T06:55:26.116Z,2.30
2019-02-28T06:57:54.690Z,2.40
2019-02-28T07:00:23.254Z,2.80
2019-02-28T07:02:51.976Z,3.70
2019-02-28T07:05:24.803Z,4.30
2019-02-28T07:07:50.750Z,5.00
2019-02-28T07:10:19.372Z,5.80
2019-02-28T07:12:47.888Z,6.70
2019-02-28T07:15:16.489Z,7.50
2019-02-28T07:17:46.517Z,8.30
2019-02-28T07:20:19.280Z,8.90
2019-02-28T07:22:47.837Z,9.40
2019-02-28T07:25:16.463Z,10.00
2019-02-28T07:27:45.112Z,10.50
2019-02-28T07:30:19.092Z,11.10
2019-02-28T07:32:48.515Z,12.10
2019-02-28T07:35:17.143Z,13.40
2019-02-28T07:37:45.688Z,14.40
2019-02-28T07:40:16.362Z,14.90
2019-02-28T07:42:45.983Z,15.30
2019-02-28T07:45:16.255Z,15.90
2019-02-28T07:47:44.975Z,16.60
2019-02-28T07:50:14.679Z,17.50
2019-02-28T07:52:43.228Z,18.30
2019-02-28T07:55:17.392Z,18.90
2019-02-28T07:57:51.198Z,19.20
2019-02-28T08:00:24.555Z,19.50
2019-02-28T08:02:53.087Z,19.30
2019-02-28T08:05:21.727Z,19.80
2019-02-28T08:07:52.284Z,20.40
2019-02-28T08:10:25.960Z,21.10
2019-02-28T08:12:54.483Z,21.60
2019-02-28T08:15:24.571Z,22.00
2019-02-28T08:17:53.205Z,22.30
2019-02-28T08:20:22.056Z,22.70
2019-02-28T08:22:50.836Z,23.00
2019-02-28T08:25:19.465Z,23.40
2019-02-28T08:27:48.138Z,23.40
2019-02-28T08:30:22.448Z,23.60
2019-02-28T08:32:51.008Z,23.00
2019-02-28T08:35:19.653Z,23.30
2019-02-28T08:37:51.747Z,23.70
2019-02-28T08:40:26.919Z,24.00
2019-02-28T08:42:55.956Z,24.00
2019-02-28T08:45:24.517Z,24.30
2019-02-28T08:47:56.773Z,24.20
2019-02-28T08:50:24.560Z,23.70
2019-02-28T08:52:55.204Z,23.60
2019-02-28T08:55:28.597Z,23.70
2019-02-28T08:57:55.995Z,23.90
2019-02-28T09:00:31.354Z,24.40
2019-02-28T09:02:54.940Z,24.90
2019-02-28T09:05:26.215Z,25.30
2019-02-28T09:07:53.943Z,25.20
2019-02-28T09:10:26.511Z,24.40
2019-02-28T09:12:55.083Z,24.50
2019-02-28T09:15:23.695Z,24.80
2019-02-28T09:17:52.398Z,25.30
2019-02-28T09:20:21.034Z,25.80
2019-02-28T09:22:49.671Z,25.50
2019-02-28T09:25:22.895Z,25.30
2019-02-28T09:27:51.932Z,25.00
2019-02-28T09:30:31.810Z,25.30
2019-02-28T09:33:00.284Z,25.80
2019-02-28T09:35:28.988Z,25.60
2019-02-28T09:37:57.467Z,25.70
2019-02-28T09:40:29.650Z,25.90
2019-02-28T09:42:56.400Z,25.90
2019-02-28T09:45:29.785Z,26.10
2019-02-28T09:48:01.867Z,25.90
2019-02-28T09:50:28.644Z,26.00
2019-02-28T09:52:57.191Z,26.40
2019-02-28T09:55:25.727Z,26.40
2019-02-28T09:57:55.099Z,26.20
2019-02-28T10:00:27.560Z,26.30
2019-02-28T10:02:56.344Z,26.90
2019-02-28T10:05:25.002Z,27.30
2019-02-28T10:07:53.614Z,26.70
2019-02-28T10:10:29.122Z,25.80
2019-02-28T10:12:57.783Z,25.50
2019-02-28T10:15:26.571Z,24.80
2019-02-28T10:17:55.294Z,24.40
2019-02-28T10:20:27.013Z,23.30
2019-02-28T10:22:56.075Z,22.30
2019-02-28T10:25:24.695Z,22.40
2019-02-28T10:27:54.612Z,22.70
2019-02-28T10:30:31.730Z,23.40
2019-02-28T10:32:57.856Z,23.90
2019-02-28T10:35:26.507Z,24.80
2019-02-28T10:37:58.384Z,25.20
2019-02-28T10:40:28.860Z,24.50
2019-02-28T10:42:57.495Z,23.60
2019-02-28T10:45:26.571Z,22.70
2019-02-28T10:47:55.072Z,21.70
2019-02-28T10:50:32.136Z,20.60
2019-02-28T10:53:04.228Z,19.80
2019-02-28T10:55:29.024Z,19.50
2019-02-28T10:57:57.655Z,19.40
2019-02-28T11:00:32.873Z,19.00
2019-02-28T11:03:04.468Z,19.00
2019-02-28T11:05:35.518Z,18.90
2019-02-28T11:08:05.395Z,18.80
2019-02-28T11:10:39.131Z,18.70
2019-02-28T11:13:10.871Z,18.70
2019-02-28T11:15:39.642Z,18.80
2019-02-28T11:18:09.673Z,18.90
2019-02-28T11:20:40.463Z,18.80
2019-02-28T11:23:14.292Z,18.70
2019-02-28T11:25:40.402Z,18.70
2019-02-28T11:28:09.108Z,18.70
2019-02-28T11:30:37.942Z,18.80
2019-02-28T11:33:06.820Z,18.90
2019-02-28T11:35:35.456Z,18.90
2019-02-28T11:38:04.975Z,19.00
2019-02-28T11:40:34.172Z,19.20
2019-02-28T11:43:06.567Z,19.30
2019-02-28T11:45:40.439Z,19.50
2019-02-28T11:48:21.384Z,19.50
2019-02-28T11:50:49.994Z,19.80
2019-02-28T11:53:19.254Z,20.30
2019-02-28T11:55:48.093Z,20.30
2019-02-28T11:58:17.976Z,20.60
2019-02-28T12:00:47.075Z,20.80
2019-02-28T12:03:15.651Z,20.80
2019-02-28T12:05:44.192Z,20.70
2019-02-28T12:08:12.944Z,20.40
2019-02-28T12:10:41.626Z,20.50
2019-02-28T12:13:10.359Z,20.40
2019-02-28T12:15:40.737Z,20.30
2019-02-28T12:18:09.374Z,20.30
2019-02-28T12:20:38.059Z,20.20
2019-02-28T12:23:06.702Z,20.00
2019-02-28T12:25:35.175Z,19.90
2019-02-28T12:28:06.486Z,19.80
2019-02-28T12:30:36.811Z,19.80
2019-02-28T12:33:05.460Z,19.70
2019-02-28T12:35:40.088Z,19.70
2019-02-28T12:38:05.219Z,19.80
2019-02-28T12:40:38.875Z,19.90
2019-02-28T12:43:09.859Z,19.70
2019-02-28T12:45:45.548Z,19.60
2019-02-28T12:48:13.997Z,19.70
2019-02-28T12:50:43.184Z,19.80
2019-02-28T12:53:11.782Z,19.70
2019-02-28T12:55:40.506Z,19.70
2019-02-28T12:58:09.047Z,19.80
2019-02-28T13:00:43.682Z,19.90
2019-02-28T13:03:12.382Z,19.90
2019-02-28T13:05:40.927Z,20.00
2019-02-28T13:08:09.675Z,20.00
2019-02-28T13:10:38.240Z,19.80
2019-02-28T13:13:07.809Z,19.80
2019-02-28T13:15:36.588Z,19.80
2019-02-28T13:18:09.009Z,19.90
2019-02-28T13:20:38.114Z,19.90
2019-02-28T13:23:06.840Z,19.90
2019-02-28T13:25:35.395Z,19.80
2019-02-28T13:28:04.206Z,19.70
2019-02-28T13:30:32.822Z,19.70
2019-02-28T13:33:01.418Z,19.60
2019-02-28T13:35:46.698Z,19.50
2019-02-28T13:38:17.372Z,19.50
2019-02-28T13:40:44.755Z,19.60
2019-02-28T13:43:19.908Z,19.60
2019-02-28T13:45:44.159Z,19.60
2019-02-28T13:48:12.842Z,19.60
2019-02-28T13:50:41.480Z,19.60
2019-02-28T13:53:17.307Z,19.60
2019-02-28T13:55:40.360Z,19.70
2019-02-28T13:58:09.106Z,19.80
2019-02-28T14:00:43.604Z,19.70
2019-02-28T14:03:10.490Z,19.70
2019-02-28T14:05:41.464Z,19.70
2019-02-28T14:08:11.799Z,19.70
2019-02-28T14:10:40.347Z,19.50
2019-02-28T14:13:09.114Z,19.30
2019-02-28T14:15:42.603Z,19.10
2019-02-28T14:18:11.815Z,19.20
2019-02-28T14:20:40.536Z,19.30
2019-02-28T14:23:09.276Z,19.50
2019-02-28T14:25:39.794Z,19.70
2019-02-28T14:28:08.044Z,19.80
2019-02-28T14:30:36.772Z,19.80
2019-02-28T14:33:05.507Z,19.80
2019-02-28T14:35:36.584Z,19.70
2019-02-28T14:38:04.904Z,19.60
2019-02-28T14:40:33.375Z,19.50
2019-02-28T14:43:01.948Z,19.50
2019-02-28T14:45:39.072Z,19.40
2019-02-28T14:48:06.827Z,19.20
2019-02-28T14:50:35.367Z,19.00
2019-02-28T14:53:04.278Z,18.80
2019-02-28T14:55:33.625Z,18.70
2019-02-28T14:58:02.520Z,18.60
2019-02-28T15:00:32.307Z,18.50
2019-02-28T15:03:02.832Z,18.30
2019-02-28T15:05:37.978Z,18.20
2019-02-28T15:08:06.615Z,18.10
2019-02-28T15:10:36.102Z,18.00
2019-02-28T15:13:05.333Z,18.00
2019-02-28T15:15:36.078Z,18.00
2019-02-28T15:18:05.081Z,18.00
2019-02-28T15:20:33.962Z,18.00
2019-02-28T15:23:02.459Z,17.90
2019-02-28T15:25:31.506Z,17.90
2019-02-28T15:28:00.385Z,17.80
2019-02-28T15:30:33.955Z,17.60
2019-02-28T15:33:01.374Z,17.50
2019-02-28T15:35:29.987Z,17.40
2019-02-28T15:37:58.626Z,17.30
2019-02-28T15:40:29.703Z,17.30
2019-02-28T15:42:58.263Z,17.30
2019-02-28T15:45:27.057Z,17.40
2019-02-28T15:47:58.989Z,17.60
2019-02-28T15:50:28.377Z,17.70
2019-02-28T15:52:57.545Z,17.70
2019-02-28T15:55:26.761Z,17.70
2019-02-28T15:57:55.315Z,17.70
2019-02-28T16:00:28.991Z,17.70
2019-02-28T16:02:57.999Z,17.60
2019-02-28T16:05:26.642Z,17.40
2019-02-28T16:07:55.839Z,17.30
2019-02-28T16:10:31.868Z,17.20
2019-02-28T16:13:00.136Z,17.00
2019-02-28T16:15:28.926Z,16.70
2019-02-28T16:17:57.560Z,16.40
2019-02-28T16:20:28.669Z,16.10
2019-02-28T16:22:56.492Z,15.80
2019-02-28T16:25:36.027Z,15.60
2019-02-28T16:28:09.188Z,15.50
2019-02-28T16:30:39.070Z,15.40
2019-02-28T16:33:07.708Z,15.20
2019-02-28T16:35:36.586Z,15.00
2019-02-28T16:38:06.566Z,14.80
2019-02-28T16:40:35.492Z,14.60
2019-02-28T16:43:04.135Z,14.40
2019-02-28T16:45:43.415Z,14.30
2019-02-28T16:48:11.939Z,14.10
2019-02-28T16:50:40.555Z,13.90
2019-02-28T16:53:15.068Z,13.90
2019-02-28T16:55:39.431Z,13.80
2019-02-28T16:58:08.111Z,13.80
2019-02-28T17:00:39.574Z,13.70
2019-02-28T17:03:07.276Z,13.60
2019-02-28T17:05:36.763Z,13.50
2019-02-28T17:08:06.814Z,13.40
2019-02-28T17:10:40.089Z,13.30
2019-02-28T17:13:08.975Z,13.30
2019-02-28T17:15:48.098Z,13.30
2019-02-28T17:18:18.417Z,13.30
2019-02-28T17:20:48.590Z,13.30
2019-02-28T17:23:18.609Z,13.20
2019-02-28T17:25:47.320Z,13.20
2019-02-28T17:28:26.342Z,13.20
2019-02-28T17:31:13.079Z,13.10
2019-02-28T17:33:43.427Z,13.10
2019-02-28T17:36:12.570Z,13.10
2019-02-28T17:38:41.210Z,13.00
2019-02-28T17:41:11.144Z,13.00
2019-02-28T17:43:40.097Z,13.00
2019-02-28T17:46:11.689Z,13.00
2019-02-28T17:48:59.667Z,13.00
2019-02-28T17:51:36.907Z,13.00
2019-02-28T17:54:20.841Z,12.90
2019-02-28T17:56:53.211Z,12.90
2019-02-28T17:59:42.035Z,12.90
2019-02-28T18:02:25.599Z,12.90
2019-02-28T18:04:57.254Z,12.80
2019-02-28T18:07:31.447Z,12.80
2019-02-28T18:10:05.634Z,12.70
2019-02-28T18:12:55.675Z,12.70
2019-02-28T18:15:33.275Z,12.70
2019-02-28T18:18:21.663Z,12.60
2019-02-28T18:21:17.510Z,12.60
2019-02-28T18:24:06.162Z,12.50
2019-02-28T18:27:11.592Z,12.50
2019-02-28T18:30:01.133Z,12.50
2019-02-28T18:32:33.067Z,12.40
2019-02-28T18:34:59.915Z,12.40
2019-02-28T18:37:28.454Z,12.40
2019-02-28T18:39:56.951Z,12.30
2019-02-28T18:42:26.867Z,12.30
2019-02-28T18:44:55.515Z,12.30
2019-02-28T18:47:24.076Z,12.30
2019-02-28T18:49:52.543Z,12.30
2019-02-28T18:52:21.015Z,12.30
2019-02-28T18:54:49.588Z,12.20
2019-02-28T18:57:19.018Z,12.20
2019-02-28T18:59:47.486Z,12.20
2019-02-28T19:02:16.079Z,12.10
2019-02-28T19:04:44.587Z,12.00
2019-02-28T19:07:13.139Z,11.90
2019-02-28T19:09:41.672Z,11.90
2019-02-28T19:12:10.189Z,11.80
2019-02-28T19:14:38.771Z,11.80
2019-02-28T19:17:07.343Z,11.70
2019-02-28T19:19:35.813Z,11.70
2019-02-28T19:22:04.447Z,11.70
2019-02-28T19:24:32.983Z,11.60
2019-02-28T19:27:01.502Z,11.60
2019-02-28T19:29:30.108Z,11.60
2019-02-28T19:31:58.756Z,11.70
2019-02-28T19:34:27.403Z,11.70
2019-02-28T19:36:56.016Z,11.70
2019-02-28T19:39:24.568Z,11.70
2019-02-28T19:41:53.146Z,11.70
2019-02-28T19:44:21.718Z,11.60
2019-02-28T19:46:50.222Z,11.60
2019-02-28T19:49:18.890Z,11.60
2019-02-28T19:51:47.434Z,11.60
2019-02-28T19:54:16.003Z,11.60
2019-02-28T19:56:44.499Z,11.60
2019-02-28T19:59:13.063Z,11.60
2019-02-28T20:01:41.550Z,11.50
2019-02-28T20:04:10.175Z,11.50
2019-02-28T20:06:38.734Z,11.50
2019-02-28T20:09:08.674Z,11.40
2019-02-28T20:11:37.290Z,11.40
2019-02-28T20:14:06.052Z,11.30
2019-02-28T20:16:34.591Z,11.30
2019-02-28T20:19:03.090Z,11.30
2019-02-28T20:21:31.714Z,11.30
2019-02-28T20:24:00.354Z,11.30
2019-02-28T20:26:28.851Z,11.30
2019-02-28T20:28:57.400Z,11.30
2019-02-28T20:31:26.407Z,11.30
2019-02-28T20:33:54.947Z,11.30
2019-02-28T20:36:23.516Z,11.20
2019-02-28T20:38:52.134Z,11.30
2019-02-28T20:41:21.006Z,11.20
2019-02-28T20:43:49.567Z,11.20
2019-02-28T20:46:18.191Z,11.20
2019-02-28T20:48:46.679Z,11.10
2019-02-28T20:51:15.232Z,11.10
2019-02-28T20:53:43.863Z,11.10
2019-02-28T20:56:12.421Z,11.10
2019-02-28T20:58:41.075Z,11.00
2019-02-28T21:01:11.759Z,11.00
2019-02-28T21:03:40.047Z,10.90
2019-02-28T21:06:08.547Z,10.90
2019-02-28T21:08:37.114Z,10.80
2019-02-28T21:11:05.607Z,10.70
2019-02-28T21:13:34.175Z,10.60
2019-02-28T21:16:02.747Z,10.60
2019-02-28T21:18:31.331Z,10.50
2019-02-28T21:20:59.871Z,10.50
2019-02-28T21:23:28.372Z,10.50
2019-02-28T21:25:57.431Z,10.50
2019-02-28T21:28:26.228Z,10.40
2019-02-28T21:30:54.829Z,10.40
2019-02-28T21:33:23.396Z,10.40
2019-02-28T21:35:52.136Z,10.40
2019-02-28T21:38:20.705Z,10.30
2019-02-28T21:40:49.348Z,10.30
2019-02-28T21:43:17.942Z,10.40
2019-02-28T21:45:46.519Z,10.40
2019-02-28T21:48:15.063Z,10.30
2019-02-28T21:50:43.603Z,10.30
2019-02-28T21:53:12.107Z,10.30
2019-02-28T21:55:40.578Z,10.40
2019-02-28T21:58:09.221Z,10.30
2019-02-28T22:00:37.955Z,10.30
2019-02-28T22:03:09.423Z,10.40
2019-02-28T22:05:38.039Z,10.40
2019-02-28T22:08:06.619Z,10.30
2019-02-28T22:10:35.089Z,10.30
2019-02-28T22:13:03.706Z,10.20
2019-02-28T22:15:32.272Z,10.10
2019-02-28T22:18:00.769Z,9.80
2019-02-28T22:20:29.299Z,9.70
2019-02-28T22:22:57.791Z,9.60
2019-02-28T22:25:26.327Z,9.60
2019-02-28T22:27:54.787Z,9.70
2019-02-28T22:30:29.166Z,9.70
2019-02-28T22:33:07.919Z,9.80
2019-02-28T22:35:38.108Z,9.90
2019-02-28T22:38:06.643Z,9.90
2019-02-28T22:40:35.147Z,9.90
2019-02-28T22:43:03.689Z,9.90
2019-02-28T22:45:32.299Z,9.90
2019-02-28T22:48:00.859Z,9.90
2019-02-28T22:50:29.343Z,9.90
2019-02-28T22:52:57.834Z,9.90
2019-02-28T22:55:26.303Z,9.80
2019-02-28T22:57:54.791Z,9.90
2019-02-28T23:00:43.272Z,9.90
2019-02-28T23:03:11.772Z,9.90
2019-02-28T23:05:40.311Z,10.00
2019-02-28T23:08:08.851Z,10.00
2019-02-28T23:10:37.518Z,10.00
2019-02-28T23:13:06.007Z,10.00
2019-02-28T23:15:34.483Z,10.00
2019-02-28T23:18:02.984Z,10.00
2019-02-28T23:20:31.523Z,10.00
2019-02-28T23:23:00.356Z,10.10
2019-02-28T23:25:28.829Z,10.00
2019-02-28T23:28:15.110Z,10.00
2019-02-28T23:31:12.303Z,10.00
2019-02-28T23:33:40.803Z,9.90
2019-02-28T23:36:09.275Z,9.90
2019-02-28T23:38:37.739Z,9.80
2019-02-28T23:41:06.375Z,9.80
2019-02-28T23:43:34.848Z,9.80
2019-02-28T23:46:03.415Z,9.80
2019-02-28T23:48:31.886Z,9.80
2019-02-28T23:51:00.373Z,9.80
2019-02-28T23:53:28.838Z,9.80
2019-02-28T23:55:57.340Z,9.90
2019-02-28T23:58:25.925Z,9.90
